Time,TemperatureF,DewpointF,PressureIn,WindDirection,WindDirectionDegrees,WindSpeedMPH,WindSpeedGustMPH,Humidity,HourlyPrecipIn,Conditions,Clouds,dailyrainin,SoftwareType,DateUTC
2013-02-22 00:00:00,27.5,25.7,29.99,ENE,76,8.0,16.0,93,0.00,,,0.00,Wunderground v.1.15,2013-02-22 06:00:00,
2013-02-22 00:05:00,27.6,25.8,29.99,East,98,8.0,16.0,93,0.00,,,0.00,Wunderground v.1.15,2013-02-22 06:05:00,
2013-02-22 00:10:00,27.7,26.2,29.98,East,80,7.0,7.0,94,0.00,,,0.00,Wunderground v.1.15,2013-02-22 06:10:00,
2013-02-22 00:15:00,27.8,26.3,29.99,ESE,107,7.0,7.0,94,0.00,,,0.00,Wunderground v.1.15,2013-02-22 06:15:00,
2013-02-22 00:20:00,27.9,26.4,29.98,NE,44,8.0,10.0,94,0.00,,,0.00,Wunderground v.1.15,2013-02-22 06:20:00,
2013-02-22 00:25:00,28.0,26.5,29.97,East,101,9.0,10.0,94,0.00,,,0.00,Wunderground v.1.15,2013-02-22 06:25:00,
2013-02-22 00:35:00,28.1,26.6,29.97,East,92,9.0,10.0,94,0.00,,,0.00,Wunderground v.1.15,2013-02-22 06:35:00,
2013-02-22 00:40:00,28.1,26.6,29.97,East,95,7.0,10.0,94,0.00,,,0.00,Wunderground v.1.15,2013-02-22 06:40:00,
2013-02-22 00:45:00,28.1,26.6,29.97,East,86,7.0,10.0,94,0.00,,,0.00,Wunderground v.1.15,2013-02-22 06:45:00,
2013-02-22 00:50:00,28.3,27.1,29.96,East,88,6.0,10.0,95,0.00,,,0.00,Wunderground v.1.15,2013-02-22 06:50:00,
2013-02-22 00:55:00,28.3,27.1,29.97,East,99,7.0,24.0,95,0.00,,,0.00,Wunderground v.1.15,2013-02-22 06:55:00,
2013-02-22 01:00:00,28.4,27.2,29.97,East,92,8.0,8.0,95,0.00,,,0.00,Wunderground v.1.15,2013-02-22 07:00:00,
2013-02-22 01:05:00,28.4,27.2,29.97,ESE,103,7.0,11.0,95,0.00,,,0.00,Wunderground v.1.15,2013-02-22 07:05:00,
2013-02-22 06:20:00,29.4,28.4,29.89,East,88,2.0,2.0,96,0.00,,,0.00,Wunderground v.1.15,2013-02-22 12:20:00,
2013-02-22 06:25:00,29.4,28.4,29.90,East,92,1.0,2.0,96,0.00,,,0.00,Wunderground v.1.15,2013-02-22 12:25:00,
2013-02-22 06:30:00,29.5,28.5,29.90,East,84,1.0,1.0,96,0.00,,,0.00,Wunderground v.1.15,2013-02-22 12:30:00,
2013-02-22 06:35:00,29.5,28.5,29.89,East,93,2.0,2.0,96,0.00,,,0.00,Wunderground v.1.15,2013-02-22 12:35:00,
2013-02-22 06:40:00,29.6,28.6,29.89,ESE,105,2.0,2.0,96,0.00,,,0.00,Wunderground v.1.15,2013-02-22 12:40:00,
2013-02-22 06:45:00,29.7,28.7,29.89,ENE,65,2.0,3.0,96,0.00,,,0.00,Wunderground v.1.15,2013-02-22 12:45:00,
2013-02-22 06:50:00,29.7,28.7,29.89,ENE,65,2.0,2.0,96,0.00,,,0.00,Wunderground v.1.15,2013-02-22 12:50:00,
2013-02-22 06:55:00,29.8,28.8,29.89,East,87,2.0,2.0,96,0.00,,,0.00,Wunderground v.1.15,2013-02-22 12:55:00,
2013-02-22 07:00:00,29.9,28.9,29.88,East,87,2.0,2.0,96,0.00,,,0.00,Wunderground v.1.15,2013-02-22 13:00:00,
2013-02-22 07:10:00,30.0,29.0,29.88,East,82,2.0,2.0,96,0.00,,,0.00,Wunderground v.1.15,2013-02-22 13:10:00,
2013-02-22 07:15:00,30.1,29.1,29.88,East,82,1.0,2.0,96,0.00,,,0.00,Wunderground v.1.15,2013-02-22 13:15:00,
2013-02-22 07:25:00,30.3,29.3,29.88,East,94,1.0,1.0,96,0.00,,,0.00,Wunderground v.1.15,2013-02-22 13:25:00,
2013-02-22 07:30:00,30.4,29.4,29.88,East,80,1.0,2.0,96,0.00,,,0.00,Wunderground v.1.15,2013-02-22 13:30:00,
2013-02-22 07:35:00,30.5,29.5,29.88,East,80,1.0,2.0,96,0.00,,,0.00,Wunderground v.1.15,2013-02-22 13:35:00,
2013-02-22 07:40:00,30.6,29.6,29.88,East,80,1.0,1.0,96,0.00,,,0.00,Wunderground v.1.15,2013-02-22 13:40:00,
2013-02-22 07:45:00,30.7,29.7,29.88,East,80,1.0,1.0,96,0.00,,,0.00,Wunderground v.1.15,2013-02-22 13:45:00,
2013-02-22 07:50:00,30.8,29.8,29.88,East,80,1.0,2.0,96,0.00,,,0.00,Wunderground v.1.15,2013-02-22 13:50:00,
2013-02-22 07:55:00,31.0,30.0,29.88,East,80,1.0,4.0,96,0.00,,,0.00,Wunderground v.1.15,2013-02-22 13:55:00,
2013-02-22 08:00:00,31.1,30.3,29.88,East,80,1.0,1.0,97,0.00,,,0.00,Wunderground v.1.15,2013-02-22 14:00:00,
2013-02-22 08:05:00,31.3,30.5,29.88,East,86,1.0,1.0,97,0.00,,,0.00,Wunderground v.1.15,2013-02-22 14:05:00,
2013-02-22 08:10:00,31.4,30.6,29.88,East,86,1.0,1.0,97,0.00,,,0.00,Wunderground v.1.15,2013-02-22 14:10:00,
2013-02-22 08:15:00,31.6,30.8,29.88,East,86,1.0,1.0,97,0.00,,,0.00,Wunderground v.1.15,2013-02-22 14:15:00,
2013-02-22 08:20:00,31.7,30.9,29.88,East,86,1.0,1.0,97,0.00,,,0.00,Wunderground v.1.15,2013-02-22 14:20:00,
2013-02-22 08:25:00,31.9,31.1,29.88,East,86,1.0,1.0,97,0.00,,,0.00,Wunderground v.1.15,2013-02-22 14:25:00,
2013-02-22 08:30:00,32.0,31.2,29.88,East,86,1.0,1.0,97,0.00,,,0.00,Wunderground v.1.15,2013-02-22 14:30:00,
2013-02-22 08:35:00,32.2,31.4,29.88,East,86,1.0,1.0,97,0.00,,,0.00,Wunderground v.1.15,2013-02-22 14:35:00,
2013-02-22 08:40:00,32.3,31.5,29.88,East,86,1.0,1.0,97,0.00,,,0.00,Wunderground v.1.15,2013-02-22 14:40:00,
2013-02-22 08:45:00,32.4,31.6,29.88,East,86,1.0,1.0,97,0.00,,,0.00,Wunderground v.1.15,2013-02-22 14:45:00,
2013-02-22 08:50:00,32.6,31.8,29.88,East,86,1.0,1.0,97,0.00,,,0.00,Wunderground v.1.15,2013-02-22 14:50:00,
2013-02-22 08:55:00,32.8,32.0,29.88,SSE,150,1.0,2.0,97,0.00,,,0.00,Wunderground v.1.15,2013-02-22 14:55:00,
2013-02-22 09:00:00,32.9,32.1,29.88,SSE,150,1.0,1.0,97,0.00,,,0.00,Wunderground v.1.15,2013-02-22 15:00:00,
2013-02-22 09:05:00,33.1,32.3,29.88,SSE,150,1.0,1.0,97,0.00,,,0.00,Wunderground v.1.15,2013-02-22 15:05:00,
2013-02-22 09:10:00,33.3,32.5,29.88,South,182,2.0,3.0,97,0.00,,,0.00,Wunderground v.1.15,2013-02-22 15:10:00,
2013-02-22 09:15:00,33.5,32.7,29.88,SSE,165,2.0,3.0,97,0.00,,,0.00,Wunderground v.1.15,2013-02-22 15:15:00,
2013-02-22 09:20:00,33.7,32.9,29.88,SSE,166,3.0,3.0,97,0.00,,,0.00,Wunderground v.1.15,2013-02-22 15:20:00,
2013-02-22 09:25:00,33.8,33.0,29.88,South,173,4.0,5.0,97,0.00,,,0.00,Wunderground v.1.15,2013-02-22 15:25:00,
2013-02-22 09:30:00,33.9,33.1,29.89,South,187,5.0,7.0,97,0.00,,,0.00,Wunderground v.1.15,2013-02-22 15:30:00,
2013-02-22 09:35:00,33.9,33.1,29.88,South,184,6.0,7.0,97,0.00,,,0.00,Wunderground v.1.15,2013-02-22 15:35:00,
2013-02-22 09:40:00,34.0,33.2,29.88,South,180,6.0,6.0,97,0.00,,,0.00,Wunderground v.1.15,2013-02-22 15:40:00,
2013-02-22 09:45:00,34.0,33.2,29.88,SSW,194,6.0,6.0,97,0.00,,,0.00,Wunderground v.1.15,2013-02-22 15:45:00,
2013-02-22 09:50:00,34.0,33.2,29.88,SSE,155,6.0,6.0,97,0.00,,,0.00,Wunderground v.1.15,2013-02-22 15:50:00,
2013-02-22 09:55:00,34.1,33.3,29.89,South,190,7.0,7.0,97,0.00,,,0.00,Wunderground v.1.15,2013-02-22 15:55:00,
2013-02-22 10:00:00,34.1,33.3,29.89,SSW,195,8.0,8.0,97,0.00,,,0.00,Wunderground v.1.15,2013-02-22 16:00:00,
2013-02-22 10:05:00,34.2,33.4,29.89,SSW,192,9.0,10.0,97,0.00,,,0.00,Wunderground v.1.15,2013-02-22 16:05:00,
2013-02-22 10:10:00,34.2,33.4,29.89,SSW,196,9.0,10.0,97,0.00,,,0.00,Wunderground v.1.15,2013-02-22 16:10:00,
2013-02-22 10:15:00,34.2,33.4,29.89,SSW,196,9.0,10.0,97,0.00,,,0.00,Wunderground v.1.15,2013-02-22 16:15:00,
2013-02-22 10:20:00,34.3,33.5,29.89,South,188,9.0,10.0,97,0.00,,,0.00,Wunderground v.1.15,2013-02-22 16:20:00,
2013-02-22 10:25:00,34.3,33.5,29.90,SSW,212,9.0,10.0,97,0.00,,,0.00,Wunderground v.1.15,2013-02-22 16:25:00,
2013-02-22 10:30:00,34.3,33.5,29.90,SSW,213,9.0,9.0,97,0.00,,,0.00,Wunderground v.1.15,2013-02-22 16:30:00,
2013-02-22 10:35:00,34.3,33.5,29.90,South,183,9.0,11.0,97,0.00,,,0.00,Wunderground v.1.15,2013-02-22 16:35:00,
2013-02-22 10:40:00,34.3,33.5,29.90,SSW,192,9.0,11.0,97,0.00,,,0.00,Wunderground v.1.15,2013-02-22 16:40:00,
2013-02-22 10:45:00,34.3,33.5,29.90,SW,219,10.0,11.0,97,0.00,,,0.00,Wunderground v.1.15,2013-02-22 16:45:00,
2013-02-22 10:50:00,34.3,33.5,29.90,SSW,195,10.0,11.0,97,0.00,,,0.00,Wunderground v.1.15,2013-02-22 16:50:00,
2013-02-22 10:55:00,34.3,33.5,29.90,SSW,209,10.0,12.0,97,0.00,,,0.00,Wunderground v.1.15,2013-02-22 16:55:00,
2013-02-22 11:00:00,34.4,33.6,29.90,SSW,209,9.0,9.0,97,0.00,,,0.00,Wunderground v.1.15,2013-02-22 17:00:00,
2013-02-22 11:10:00,34.3,33.5,29.90,SSW,206,9.0,10.0,97,0.00,,,0.00,Wunderground v.1.15,2013-02-22 17:10:00,
2013-02-22 11:15:00,34.4,33.6,29.90,SW,217,9.0,11.0,97,0.00,,,0.00,Wunderground v.1.15,2013-02-22 17:15:00,
2013-02-22 11:20:00,34.4,33.6,29.90,SW,217,10.0,14.0,97,0.00,,,0.00,Wunderground v.1.15,2013-02-22 17:20:00,
2013-02-22 11:25:00,34.4,33.6,29.91,SW,218,10.0,14.0,97,0.00,,,0.00,Wunderground v.1.15,2013-02-22 17:25:00,
2013-02-22 11:30:00,34.4,33.6,29.90,SSW,194,10.0,11.0,97,0.00,,,0.00,Wunderground v.1.15,2013-02-22 17:30:00,
2013-02-22 11:35:00,34.5,33.7,29.91,SW,222,11.0,11.0,97,0.00,,,0.00,Wunderground v.1.15,2013-02-22 17:35:00,
2013-02-22 11:40:00,34.5,33.7,29.90,SW,219,11.0,11.0,97,0.00,,,0.00,Wunderground v.1.15,2013-02-22 17:40:00,
2013-02-22 11:45:00,34.6,33.8,29.91,SW,221,11.0,11.0,97,0.00,,,0.00,Wunderground v.1.15,2013-02-22 17:45:00,
2013-02-22 11:50:00,34.6,33.8,29.91,SSW,208,11.0,11.0,97,0.00,,,0.00,Wunderground v.1.15,2013-02-22 17:50:00,
2013-02-22 11:55:00,34.6,33.8,29.91,SW,219,11.0,16.0,97,0.00,,,0.00,Wunderground v.1.15,2013-02-22 17:55:00,
2013-02-22 12:00:00,34.6,33.8,29.91,SW,228,12.0,12.0,97,0.00,,,0.00,Wunderground v.1.15,2013-02-22 18:00:00,
2013-02-22 12:05:00,34.6,33.8,29.91,SW,223,11.0,12.0,97,0.00,,,0.00,Wunderground v.1.15,2013-02-22 18:05:00,
2013-02-22 12:10:00,34.7,33.9,29.91,SW,222,11.0,11.0,97,0.00,,,0.00,Wunderground v.1.15,2013-02-22 18:10:00,
2013-02-22 12:15:00,34.7,33.7,29.91,SW,221,11.0,12.0,96,0.00,,,0.00,Wunderground v.1.15,2013-02-22 18:15:00,
2013-02-22 12:20:00,34.7,33.7,29.90,SW,226,10.0,10.0,96,0.00,,,0.00,Wunderground v.1.15,2013-02-22 18:20:00,
2013-02-22 12:25:00,34.8,33.8,29.90,SW,223,10.0,13.0,96,0.00,,,0.00,Wunderground v.1.15,2013-02-22 18:25:00,
2013-02-22 12:30:00,34.8,33.5,29.90,SW,220,11.0,11.0,95,0.00,,,0.00,Wunderground v.1.15,2013-02-22 18:30:00,
2013-02-22 12:35:00,34.9,33.6,29.90,SW,219,12.0,12.0,95,0.00,,,0.00,Wunderground v.1.15,2013-02-22 18:35:00,
2013-02-22 12:40:00,34.9,33.6,29.90,SW,228,11.0,11.0,95,0.00,,,0.00,Wunderground v.1.15,2013-02-22 18:40:00,
2013-02-22 12:45:00,34.9,33.6,29.90,SW,219,11.0,11.0,95,0.00,,,0.00,Wunderground v.1.15,2013-02-22 18:45:00,
2013-02-22 12:50:00,34.9,33.6,29.90,SW,223,11.0,11.0,95,0.00,,,0.00,Wunderground v.1.15,2013-02-22 18:50:00,
2013-02-22 13:00:00,34.8,33.5,29.90,SW,223,11.0,11.0,95,0.00,,,0.00,Wunderground v.1.15,2013-02-22 19:00:00,
2013-02-22 13:05:00,34.8,33.5,29.90,SW,219,10.0,11.0,95,0.00,,,0.00,Wunderground v.1.15,2013-02-22 19:05:00,
2013-02-22 13:10:00,34.8,33.5,29.90,SW,225,10.0,10.0,95,0.00,,,0.00,Wunderground v.1.15,2013-02-22 19:10:00,
2013-02-22 13:15:00,34.8,33.5,29.90,SW,222,11.0,11.0,95,0.00,,,0.00,Wunderground v.1.15,2013-02-22 19:15:00,
2013-02-22 13:20:00,34.7,33.4,29.90,SW,217,11.0,12.0,95,0.00,,,0.00,Wunderground v.1.15,2013-02-22 19:20:00,
2013-02-22 13:25:00,34.7,33.4,29.90,SW,223,12.0,12.0,95,0.00,,,0.00,Wunderground v.1.15,2013-02-22 19:25:00,
2013-02-22 13:30:00,34.7,33.4,29.90,SW,232,12.0,16.0,95,0.00,,,0.00,Wunderground v.1.15,2013-02-22 19:30:00,
2013-02-22 13:35:00,34.6,33.3,29.91,SW,233,12.0,16.0,95,0.00,,,0.00,Wunderground v.1.15,2013-02-22 19:35:00,
2013-02-22 13:40:00,34.6,33.3,29.91,SW,233,12.0,12.0,95,0.00,,,0.00,Wunderground v.1.15,2013-02-22 19:40:00,
2013-02-22 13:45:00,34.6,33.3,29.91,SW,229,12.0,12.0,95,0.00,,,0.00,Wunderground v.1.15,2013-02-22 19:45:00,
2013-02-22 13:50:00,34.6,33.3,29.91,SW,234,11.0,11.0,95,0.00,,,0.00,Wunderground v.1.15,2013-02-22 19:50:00,
2013-02-22 13:55:00,34.7,33.4,29.91,SW,230,12.0,15.0,95,0.00,,,0.00,Wunderground v.1.15,2013-02-22 19:55:00,
2013-02-22 14:00:00,34.8,33.2,29.91,SW,224,14.0,14.0,94,0.00,,,0.00,Wunderground v.1.15,2013-02-22 20:00:00,
2013-02-22 14:05:00,34.9,33.3,29.91,SW,216,14.0,15.0,94,0.00,,,0.00,Wunderground v.1.15,2013-02-22 20:05:00,
2013-02-22 14:10:00,34.9,33.3,29.91,SW,232,14.0,14.0,94,0.00,,,0.00,Wunderground v.1.15,2013-02-22 20:10:00,
2013-02-22 14:15:00,35.0,33.4,29.91,WSW,239,12.0,14.0,94,0.00,,,0.00,Wunderground v.1.15,2013-02-22 20:15:00,
2013-02-22 14:20:00,34.9,33.3,29.91,SW,223,11.0,12.0,94,0.00,,,0.00,Wunderground v.1.15,2013-02-22 20:20:00,
2013-02-22 14:25:00,35.0,33.4,29.91,SW,234,12.0,12.0,94,0.00,,,0.00,Wunderground v.1.15,2013-02-22 20:25:00,
2013-02-22 14:30:00,35.1,33.5,29.91,SW,227,11.0,11.0,94,0.00,,,0.00,Wunderground v.1.15,2013-02-22 20:30:00,
2013-02-22 14:35:00,35.1,33.3,29.91,SW,236,11.0,12.0,93,0.00,,,0.00,Wunderground v.1.15,2013-02-22 20:35:00,
2013-02-22 14:45:00,35.1,33.0,29.91,SW,227,11.0,11.0,92,0.00,,,0.00,Wunderground v.1.15,2013-02-22 20:45:00,
2013-02-22 14:50:00,35.0,32.6,29.92,WSW,241,12.0,12.0,91,0.00,,,0.00,Wunderground v.1.15,2013-02-22 20:50:00,
2013-02-22 14:55:00,35.0,32.4,29.92,WSW,248,14.0,14.0,90,0.00,,,0.00,Wunderground v.1.15,2013-02-22 20:55:00,
2013-02-22 15:00:00,35.1,32.5,29.92,SW,228,15.0,17.0,90,0.00,,,0.00,Wunderground v.1.15,2013-02-22 21:00:00,
2013-02-22 15:05:00,35.0,32.4,29.92,SW,233,15.0,17.0,90,0.00,,,0.00,Wunderground v.1.15,2013-02-22 21:05:00,
2013-02-22 15:10:00,34.9,32.3,29.93,SW,233,13.0,15.0,90,0.00,,,0.00,Wunderground v.1.15,2013-02-22 21:10:00,
2013-02-22 15:15:00,34.9,32.3,29.92,SW,235,13.0,15.0,90,0.00,,,0.00,Wunderground v.1.15,2013-02-22 21:15:00,
2013-02-22 15:20:00,34.8,31.9,29.93,SW,227,14.0,14.0,89,0.00,,,0.00,Wunderground v.1.15,2013-02-22 21:20:00,
2013-02-22 15:25:00,34.7,31.8,29.93,WSW,238,13.0,14.0,89,0.00,,,0.00,Wunderground v.1.15,2013-02-22 21:25:00,
2013-02-22 15:30:00,34.6,31.7,29.93,WSW,246,13.0,13.0,89,0.00,,,0.00,Wunderground v.1.15,2013-02-22 21:30:00,
2013-02-22 15:35:00,34.6,31.4,29.93,WSW,243,13.0,13.0,88,0.00,,,0.00,Wunderground v.1.15,2013-02-22 21:35:00,
2013-02-22 15:40:00,34.6,31.4,29.93,WSW,238,13.0,13.0,88,0.00,,,0.00,Wunderground v.1.15,2013-02-22 21:40:00,
2013-02-22 15:45:00,34.4,30.6,29.94,WSW,242,14.0,20.0,86,0.00,,,0.00,Wunderground v.1.15,2013-02-22 21:45:00,
2013-02-22 15:50:00,34.3,30.5,29.94,WSW,244,17.0,18.0,86,0.00,,,0.00,Wunderground v.1.15,2013-02-22 21:50:00,
2013-02-22 15:55:00,34.2,30.4,29.94,WSW,243,17.0,18.0,86,0.00,,,0.00,Wunderground v.1.15,2013-02-22 21:55:00,
2013-02-22 16:00:00,34.0,30.5,29.94,SW,217,16.0,16.0,87,0.00,,,0.00,Wunderground v.1.15,2013-02-22 22:00:00,
2013-02-22 16:05:00,33.9,30.4,29.94,WSW,245,15.0,18.0,87,0.00,,,0.00,Wunderground v.1.15,2013-02-22 22:05:00,
2013-02-22 16:10:00,33.8,30.3,29.94,WSW,242,16.0,17.0,87,0.00,,,0.00,Wunderground v.1.15,2013-02-22 22:10:00,
2013-02-22 16:15:00,33.7,30.0,29.94,WSW,258,17.0,21.0,86,0.00,,,0.00,Wunderground v.1.15,2013-02-22 22:15:00,
2013-02-22 16:20:00,33.7,30.0,29.94,WSW,237,17.0,17.0,86,0.00,,,0.00,Wunderground v.1.15,2013-02-22 22:20:00,
2013-02-22 16:25:00,33.6,29.9,29.94,WSW,238,15.0,17.0,86,0.00,,,0.00,Wunderground v.1.15,2013-02-22 22:25:00,
2013-02-22 16:30:00,33.6,29.9,29.94,WSW,247,14.0,14.0,86,0.00,,,0.00,Wunderground v.1.15,2013-02-22 22:30:00,
2013-02-22 16:35:00,33.5,29.5,29.95,West,263,15.0,17.0,85,0.00,,,0.00,Wunderground v.1.15,2013-02-22 22:35:00,
2013-02-22 16:40:00,33.5,29.5,29.95,WSW,246,16.0,16.0,85,0.00,,,0.00,Wunderground v.1.15,2013-02-22 22:40:00,
2013-02-22 16:45:00,33.5,29.8,29.95,WSW,247,15.0,16.0,86,0.00,,,0.00,Wunderground v.1.15,2013-02-22 22:45:00,
2013-02-22 16:50:00,33.5,29.8,29.95,West,261,13.0,13.0,86,0.00,,,0.00,Wunderground v.1.15,2013-02-22 22:50:00,
2013-02-22 16:55:00,33.4,29.4,29.96,WSW,239,13.0,24.0,85,0.00,,,0.00,Wunderground v.1.15,2013-02-22 22:55:00,
2013-02-22 17:05:00,33.4,29.4,29.96,WSW,248,14.0,18.0,85,0.00,,,0.00,Wunderground v.1.15,2013-02-22 23:05:00,
2013-02-22 17:10:00,33.4,29.7,29.96,WSW,242,14.0,14.0,86,0.00,,,0.00,Wunderground v.1.15,2013-02-22 23:10:00,
2013-02-22 17:15:00,33.3,29.6,29.96,WSW,246,14.0,14.0,86,0.00,,,0.00,Wunderground v.1.15,2013-02-22 23:15:00,
2013-02-22 17:20:00,33.2,29.5,29.96,WSW,254,14.0,14.0,86,0.00,,,0.00,Wunderground v.1.15,2013-02-22 23:20:00,
2013-02-22 17:25:00,33.1,29.4,29.96,WSW,252,14.0,16.0,86,0.00,,,0.00,Wunderground v.1.15,2013-02-22 23:25:00,
2013-02-22 17:30:00,33.1,29.1,29.97,WSW,251,14.0,16.0,85,0.00,,,0.00,Wunderground v.1.15,2013-02-22 23:30:00,
2013-02-22 17:35:00,33.1,29.4,29.96,WSW,257,15.0,16.0,86,0.00,,,0.00,Wunderground v.1.15,2013-02-22 23:35:00,
2013-02-22 17:40:00,33.0,29.6,29.97,WSW,241,13.0,13.0,87,0.00,,,0.00,Wunderground v.1.15,2013-02-22 23:40:00,
2013-02-22 17:45:00,32.9,29.2,29.97,West,261,12.0,13.0,86,0.00,,,0.00,Wunderground v.1.15,2013-02-22 23:45:00,
2013-02-22 17:50:00,32.8,29.4,29.98,WSW,246,12.0,12.0,87,0.00,,,0.00,Wunderground v.1.15,2013-02-22 23:50:00,
2013-02-22 18:00:00,32.2,28.8,29.98,WSW,249,11.0,11.0,87,0.00,,,0.00,Wunderground v.1.15,2013-02-23 00:00:00,
2013-02-22 18:10:00,32.1,28.7,29.99,West,273,12.0,12.0,87,0.00,,,0.00,Wunderground v.1.15,2013-02-23 00:10:00,
2013-02-22 18:15:00,31.8,27.5,29.99,WSW,255,13.0,15.0,84,0.00,,,0.00,Wunderground v.1.15,2013-02-23 00:15:00,
2013-02-22 18:20:00,31.7,27.4,29.99,West,259,14.0,14.0,84,0.00,,,0.00,Wunderground v.1.15,2013-02-23 00:20:00,
2013-02-22 18:25:00,31.6,27.3,29.99,WSW,255,13.0,14.0,84,0.00,,,0.00,Wunderground v.1.15,2013-02-23 00:25:00,
2013-02-22 18:30:00,31.6,27.3,29.99,West,261,13.0,13.0,84,0.00,,,0.00,Wunderground v.1.15,2013-02-23 00:30:00,
2013-02-22 18:35:00,31.6,27.3,29.99,West,267,13.0,13.0,84,0.00,,,0.00,Wunderground v.1.15,2013-02-23 00:35:00,
2013-02-22 18:40:00,31.6,27.6,29.99,West,271,12.0,12.0,85,0.00,,,0.00,Wunderground v.1.15,2013-02-23 00:40:00,
2013-02-22 18:45:00,31.5,27.2,29.99,West,270,11.0,12.0,84,0.00,,,0.00,Wunderground v.1.15,2013-02-23 00:45:00,
2013-02-22 18:50:00,31.3,27.3,30.00,West,263,10.0,11.0,85,0.00,,,0.00,Wunderground v.1.15,2013-02-23 00:50:00,
2013-02-22 18:55:00,31.3,27.3,30.00,West,265,11.0,13.0,85,0.00,,,0.00,Wunderground v.1.15,2013-02-23 00:55:00,
2013-02-22 19:00:00,31.2,27.2,30.00,West,267,11.0,13.0,85,0.00,,,0.00,Wunderground v.1.15,2013-02-23 01:00:00,
2013-02-22 19:05:00,31.1,26.8,30.00,WSW,257,12.0,13.0,84,0.00,,,0.00,Wunderground v.1.15,2013-02-23 01:05:00,
2013-02-22 19:10:00,31.1,26.8,30.00,WSW,257,12.0,12.0,84,0.00,,,0.00,Wunderground v.1.15,2013-02-23 01:10:00,
2013-02-22 19:15:00,31.1,26.8,30.00,WSW,257,10.0,12.0,84,0.00,,,0.00,Wunderground v.1.15,2013-02-23 01:15:00,
2013-02-22 19:20:00,31.0,26.7,30.00,WSW,242,10.0,10.0,84,0.00,,,0.00,Wunderground v.1.15,2013-02-23 01:20:00,
2013-02-22 19:25:00,31.0,26.7,30.00,WSW,245,10.0,18.0,84,0.00,,,0.00,Wunderground v.1.15,2013-02-23 01:25:00,
2013-02-22 19:30:00,30.9,26.6,30.01,West,261,11.0,12.0,84,0.00,,,0.00,Wunderground v.1.15,2013-02-23 01:30:00,
2013-02-22 19:35:00,30.9,26.9,30.01,WSW,245,12.0,14.0,85,0.00,,,0.00,Wunderground v.1.15,2013-02-23 01:35:00,
2013-02-22 19:40:00,30.8,26.8,30.01,WSW,254,12.0,13.0,85,0.00,,,0.00,Wunderground v.1.15,2013-02-23 01:40:00,
2013-02-22 19:50:00,30.8,26.5,30.01,WSW,247,11.0,11.0,84,0.00,,,0.00,Wunderground v.1.15,2013-02-23 01:50:00,
2013-02-22 19:55:00,30.8,26.5,30.01,WSW,248,10.0,15.0,84,0.00,,,0.00,Wunderground v.1.15,2013-02-23 01:55:00,
2013-02-22 20:00:00,30.8,26.0,30.01,WSW,244,10.0,10.0,82,0.00,,,0.00,Wunderground v.1.15,2013-02-23 02:00:00,
2013-02-22 20:05:00,30.8,26.2,30.01,WSW,242,10.0,10.0,83,0.00,,,0.00,Wunderground v.1.15,2013-02-23 02:05:00,
2013-02-22 20:10:00,30.7,26.1,30.01,WSW,248,10.0,10.0,83,0.00,,,0.00,Wunderground v.1.15,2013-02-23 02:10:00,
2013-02-22 20:15:00,30.6,26.3,30.01,WSW,240,9.0,13.0,84,0.00,,,0.00,Wunderground v.1.15,2013-02-23 02:15:00,
2013-02-22 20:20:00,30.6,26.3,30.01,SW,236,10.0,11.0,84,0.00,,,0.00,Wunderground v.1.15,2013-02-23 02:20:00,
2013-02-22 20:25:00,30.5,26.2,30.01,SW,233,11.0,14.0,84,0.00,,,0.00,Wunderground v.1.15,2013-02-23 02:25:00,
2013-02-22 20:30:00,30.5,26.2,30.01,SW,234,12.0,12.0,84,0.00,,,0.00,Wunderground v.1.15,2013-02-23 02:30:00,
2013-02-22 20:35:00,30.4,26.4,30.02,WSW,237,11.0,12.0,85,0.00,,,0.00,Wunderground v.1.15,2013-02-23 02:35:00,
2013-02-22 20:40:00,30.3,26.0,30.02,WSW,240,12.0,12.0,84,0.00,,,0.00,Wunderground v.1.15,2013-02-23 02:40:00,
2013-02-22 20:45:00,30.2,25.9,30.02,WSW,248,13.0,15.0,84,0.00,,,0.00,Wunderground v.1.15,2013-02-23 02:45:00,
2013-02-22 20:50:00,30.2,26.2,30.02,WSW,251,12.0,12.0,85,0.00,,,0.00,Wunderground v.1.15,2013-02-23 02:50:00,
2013-02-22 20:55:00,30.1,26.4,30.02,WSW,238,11.0,15.0,86,0.00,,,0.00,Wunderground v.1.15,2013-02-23 02:55:00,
2013-02-22 21:00:00,30.1,26.7,30.02,WSW,240,10.0,10.0,87,0.00,,,0.00,Wunderground v.1.15,2013-02-23 03:00:00,
2013-02-22 21:05:00,30.1,26.4,30.02,SW,234,11.0,13.0,86,0.00,,,0.00,Wunderground v.1.15,2013-02-23 03:05:00,
2013-02-22 21:10:00,30.0,26.3,30.02,WSW,242,12.0,12.0,86,0.00,,,0.00,Wunderground v.1.15,2013-02-23 03:10:00,
2013-02-22 21:15:00,29.9,26.2,30.02,WSW,242,12.0,12.0,86,0.00,,,0.00,Wunderground v.1.15,2013-02-23 03:15:00,
2013-02-22 21:20:00,29.9,26.2,30.02,WSW,246,12.0,12.0,86,0.00,,,0.00,Wunderground v.1.15,2013-02-23 03:20:00,
2013-02-22 21:25:00,29.8,26.4,30.02,WSW,238,11.0,12.0,87,0.00,,,0.00,Wunderground v.1.15,2013-02-23 03:25:00,
2013-02-22 21:30:00,29.8,26.1,30.02,WSW,252,11.0,11.0,86,0.00,,,0.00,Wunderground v.1.15,2013-02-23 03:30:00,
2013-02-22 21:35:00,29.7,26.0,30.02,WSW,242,12.0,12.0,86,0.00,,,0.00,Wunderground v.1.15,2013-02-23 03:35:00,
2013-02-22 21:40:00,29.7,26.0,30.02,WSW,250,12.0,13.0,86,0.00,,,0.00,Wunderground v.1.15,2013-02-23 03:40:00,
2013-02-22 21:45:00,29.6,26.2,30.02,SW,234,12.0,13.0,87,0.00,,,0.00,Wunderground v.1.15,2013-02-23 03:45:00,
2013-02-22 21:50:00,29.6,26.2,30.02,WSW,237,12.0,12.0,87,0.00,,,0.00,Wunderground v.1.15,2013-02-23 03:50:00,
2013-02-22 21:55:00,29.5,26.1,30.02,WSW,244,11.0,13.0,87,0.00,,,0.00,Wunderground v.1.15,2013-02-23 03:55:00,
2013-02-22 22:00:00,29.4,26.0,30.02,WSW,244,11.0,11.0,87,0.00,,,0.00,Wunderground v.1.15,2013-02-23 04:00:00,
2013-02-22 22:05:00,29.3,25.9,30.02,WSW,243,11.0,12.0,87,0.00,,,0.00,Wunderground v.1.15,2013-02-23 04:05:00,
2013-02-22 22:10:00,29.3,25.9,30.02,SW,234,11.0,11.0,87,0.00,,,0.00,Wunderground v.1.15,2013-02-23 04:10:00,
2013-02-22 22:15:00,29.3,25.9,30.02,SW,236,11.0,12.0,87,0.00,,,0.00,Wunderground v.1.15,2013-02-23 04:15:00,
2013-02-22 22:20:00,29.2,25.5,30.02,WSW,238,12.0,12.0,86,0.00,,,0.00,Wunderground v.1.15,2013-02-23 04:20:00,
2013-02-22 22:25:00,29.2,25.5,30.02,WSW,240,13.0,13.0,86,0.00,,,0.00,Wunderground v.1.15,2013-02-23 04:25:00,
2013-02-22 22:30:00,29.1,25.7,30.02,WSW,247,12.0,12.0,87,0.00,,,0.00,Wunderground v.1.15,2013-02-23 04:30:00,
2013-02-22 22:35:00,29.0,25.6,30.03,SW,236,10.0,12.0,87,0.00,,,0.00,Wunderground v.1.15,2013-02-23 04:35:00,
2013-02-22 22:40:00,29.0,25.6,30.03,WSW,247,10.0,10.0,87,0.00,,,0.00,Wunderground v.1.15,2013-02-23 04:40:00,
2013-02-22 22:45:00,29.0,25.9,30.03,SW,229,10.0,10.0,88,0.00,,,0.00,Wunderground v.1.15,2013-02-23 04:45:00,
2013-02-22 22:50:00,28.9,25.8,30.03,SW,215,9.0,10.0,88,0.00,,,0.00,Wunderground v.1.15,2013-02-23 04:50:00,
2013-02-22 22:55:00,28.9,25.8,30.02,SW,224,10.0,11.0,88,0.00,,,0.00,Wunderground v.1.15,2013-02-23 04:55:00,
2013-02-22 23:00:00,28.9,25.8,30.02,WSW,238,10.0,10.0,88,0.00,,,0.00,Wunderground v.1.15,2013-02-23 05:00:00,
2013-02-22 23:10:00,28.8,25.7,30.03,SW,229,11.0,11.0,88,0.00,,,0.00,Wunderground v.1.15,2013-02-23 05:10:00,
2013-02-22 23:15:00,28.7,25.6,30.02,SW,234,10.0,13.0,88,0.00,,,0.00,Wunderground v.1.15,2013-02-23 05:15:00,
2013-02-22 23:20:00,28.7,25.6,30.02,SW,221,10.0,13.0,88,0.00,,,0.00,Wunderground v.1.15,2013-02-23 05:20:00,
2013-02-22 23:25:00,28.7,25.6,30.02,SW,225,11.0,13.0,88,0.00,,,0.00,Wunderground v.1.15,2013-02-23 05:25:00,
2013-02-22 23:30:00,28.6,25.5,30.02,SW,236,11.0,12.0,88,0.00,,,0.00,Wunderground v.1.15,2013-02-23 05:30:00,
2013-02-22 23:35:00,28.5,25.4,30.02,SW,230,10.0,12.0,88,0.00,,,0.00,Wunderground v.1.15,2013-02-23 05:35:00,
2013-02-22 23:40:00,28.5,25.4,30.02,WSW,237,10.0,10.0,88,0.00,,,0.00,Wunderground v.1.15,2013-02-23 05:40:00,
2013-02-22 23:45:00,28.3,25.2,30.02,SW,231,10.0,10.0,88,0.00,,,0.00,Wunderground v.1.15,2013-02-23 05:45:00,
2013-02-22 23:50:00,28.2,25.1,30.02,SW,235,10.0,10.0,88,0.00,,,0.00,Wunderground v.1.15,2013-02-23 05:50:00,
2013-02-22 23:55:00,28.1,25.0,30.02,SW,227,10.0,14.0,88,0.00,,,0.00,Wunderground v.1.15,2013-02-23 05:55:00,